Time;durP1;ratioP1;P1;durP2;ratioP2;P2;SDS_P1;SDS_P2;PMS_P1;PMS_P2;Temp;Humidity;BMP_temperature;BMP_pressure;BME280_temperature;BME280_humidity;BME280_pressure;Samples;Min_cycle;Max_cycle;Signal;HPM_P1;HPM_P2
2023/07/28 00:00:08;;;;;;;7.40;4.80;;;;;;;15.85;76.07;97207.48;106982;1273;25268;-77
2023/07/28 00:03:01;;;;;;;6.40;4.60;;;;;;;15.87;75.94;97212.31;106909;1273;23071;-77
2023/07/28 00:05:29;;;;;;;6.50;4.00;;;;;;;15.87;75.54;97212.63;106991;1273;22606;-77
2023/07/28 00:07:57;;;;;;;5.10;4.00;;;;;;;15.88;75.53;97209.88;106987;1273;22535;-77
2023/07/28 00:10:25;;;;;;;5.40;4.10;;;;;;;15.88;75.30;97205.84;106995;1273;26686;-77
2023/07/28 00:12:53;;;;;;;4.30;3.80;;;;;;;15.90;75.21;97206.95;106994;1273;23056;-77
2023/07/28 00:15:21;;;;;;;5.20;4.30;;;;;;;15.90;75.03;97211.00;106965;1273;22783;-77
2023/07/28 00:17:49;;;;;;;5.30;3.70;;;;;;;15.91;74.81;97211.79;106966;1273;22616;-77
2023/07/28 00:20:17;;;;;;;5.20;3.50;;;;;;;15.90;74.71;97206.73;106985;1273;22642;-77
2023/07/28 00:22:45;;;;;;;8.20;4.00;;;;;;;15.90;74.60;97205.16;107002;1273;24457;-77
2023/07/28 00:25:13;;;;;;;5.90;3.80;;;;;;;15.89;74.45;97202.52;107000;1273;22507;-77
2023/07/28 00:27:41;;;;;;;5.70;4.40;;;;;;;15.89;74.16;97195.92;106924;1273;169917;-77
2023/07/28 00:30:11;;;;;;;5.50;4.70;;;;;;;15.89;74.11;97203.14;107072;1273;22729;-77
2023/07/28 00:32:39;;;;;;;9.50;8.60;;;;;;;15.89;73.99;97193.13;107002;1273;22522;-77
2023/07/28 00:35:07;;;;;;;6.70;5.50;;;;;;;15.89;73.99;97192.05;106995;1273;24364;-77
2023/07/28 00:37:35;;;;;;;6.00;4.30;;;;;;;15.90;73.83;97187.56;107016;1273;24247;-78
2023/07/28 00:40:04;;;;;;;5.80;4.40;;;;;;;15.90;73.86;97185.92;106946;1273;22596;-77
2023/07/28 00:42:32;;;;;;;4.70;3.80;;;;;;;15.90;73.79;97178.77;106972;1273;25278;-77
2023/07/28 00:45:04;;;;;;;4.90;3.70;;;;;;;15.90;73.56;97176.84;107008;1273;22634;-77
2023/07/28 00:47:32;;;;;;;8.10;3.80;;;;;;;15.92;73.56;97178.74;106990;1273;24271;-77
2023/07/28 00:50:00;;;;;;;6.00;3.80;;;;;;;15.92;73.35;97174.87;106976;1273;22732;-78
2023/07/28 00:52:28;;;;;;;5.70;4.20;;;;;;;15.94;73.24;97172.96;106995;1273;23002;-77
2023/07/28 00:54:56;;;;;;;6.90;4.30;;;;;;;15.95;73.24;97165.85;106975;1273;25673;-78
2023/07/28 00:57:24;;;;;;;4.50;3.60;;;;;;;15.97;73.04;97161.31;107053;1273;22799;-78
2023/07/28 00:59:53;;;;;;;5.40;4.40;;;;;;;15.97;72.99;97159.92;106800;1273;25337;-78
2023/07/28 01:02:21;;;;;;;5.60;3.80;;;;;;;15.98;72.68;97155.92;107081;1250;22576;-77
2023/07/28 01:04:50;;;;;;;4.80;3.90;;;;;;;15.98;72.64;97154.91;106961;1273;25146;-77
2023/07/28 01:07:25;;;;;;;6.40;4.00;;;;;;;15.99;72.44;97153.69;106969;1273;22522;-77
2023/07/28 01:10:03;;;;;;;5.60;4.10;;;;;;;16.00;72.38;97155.48;106967;1273;22586;-77
2023/07/28 01:12:31;;;;;;;5.20;3.90;;;;;;;16.01;72.35;97156.14;107026;1273;22626;-77
2023/07/28 01:14:59;;;;;;;4.70;3.80;;;;;;;16.02;72.27;97154.53;106892;1273;22655;-77
2023/07/28 01:17:27;;;;;;;4.90;3.60;;;;;;;16.01;72.28;97154.98;106996;1273;25333;-77
2023/07/28 01:19:56;;;;;;;5.20;3.70;;;;;;;16.02;72.35;97160.59;107003;1273;22541;-77
2023/07/28 01:22:49;;;;;;;6.40;3.60;;;;;;;16.03;72.04;97164.02;107002;1273;22655;-76
2023/07/28 01:25:27;;;;;;;8.00;4.00;;;;;;;16.03;72.15;97159.29;106934;1273;22652;-76
2023/07/28 01:27:57;;;;;;;4.60;4.00;;;;;;;16.04;72.16;97157.84;106965;1273;22651;-76
2023/07/28 01:30:27;;;;;;;5.20;4.30;;;;;;;16.04;72.15;97161.66;106982;1273;22536;-77
2023/07/28 01:32:56;;;;;;;5.40;3.70;;;;;;;16.05;72.04;97163.38;107040;1250;22720;-76
2023/07/28 01:35:26;;;;;;;6.10;4.00;;;;;;;16.07;71.99;97165.38;107020;1273;24273;-77
2023/07/28 01:37:54;;;;;;;7.60;3.40;;;;;;;16.09;71.89;97157.58;106972;1273;24247;-76
2023/07/28 01:40:22;;;;;;;4.70;4.00;;;;;;;16.13;71.74;97156.89;106946;1273;22723;-76
2023/07/28 01:42:50;;;;;;;5.50;3.50;;;;;;;16.17;71.68;97152.24;106985;1273;24199;-76
2023/07/28 01:45:18;;;;;;;5.20;3.80;;;;;;;16.21;71.21;97143.33;107023;1273;22759;-76
2023/07/28 01:47:47;;;;;;;4.60;3.20;;;;;;;16.27;71.18;97139.27;106977;1273;22655;-77
2023/07/28 01:50:15;;;;;;;7.70;4.50;;;;;;;16.32;70.81;97140.08;106922;1273;23010;-77
2023/07/28 01:52:43;;;;;;;6.30;4.50;;;;;;;16.38;70.98;97141.70;106996;1273;24253;-76
2023/07/28 01:55:11;;;;;;;7.20;4.70;;;;;;;16.43;70.72;97145.52;106981;1273;22647;-76
2023/07/28 01:57:40;;;;;;;5.90;4.30;;;;;;;16.47;70.39;97150.59;106937;1273;24241;-77
2023/07/28 02:00:09;;;;;;;5.20;3.80;;;;;;;16.51;70.25;97140.57;107002;1273;23147;-77
2023/07/28 02:02:40;;;;;;;5.50;4.20;;;;;;;16.54;69.82;97136.51;106973;1273;22524;-77
2023/07/28 02:05:08;;;;;;;4.90;4.00;;;;;;;16.56;69.67;97130.34;106992;1273;24248;-77
2023/07/28 02:07:36;;;;;;;4.80;3.60;;;;;;;16.58;69.48;97121.99;106956;1273;24361;-77
2023/07/28 02:10:05;;;;;;;6.60;3.70;;;;;;;16.63;69.17;97118.59;106997;1273;23021;-77
2023/07/28 02:12:33;;;;;;;7.90;3.90;;;;;;;16.68;69.38;97117.62;107019;1273;22567;-78
2023/07/28 02:15:02;;;;;;;6.00;3.60;;;;;;;16.72;69.52;97126.70;106971;1273;22540;-78
2023/07/28 02:17:30;;;;;;;5.60;4.30;;;;;;;16.74;69.71;97118.60;107000;1273;23053;-78
2023/07/28 02:19:58;;;;;;;4.10;3.60;;;;;;;16.74;69.76;97119.15;106959;1273;24344;-78
2023/07/28 02:22:26;;;;;;;5.20;4.20;;;;;;;16.75;69.89;97114.24;106929;1273;22627;-78
2023/07/28 02:24:54;;;;;;;6.40;4.30;;;;;;;16.73;69.73;97113.06;106972;1273;22933;-78
2023/07/28 02:27:22;;;;;;;6.20;4.40;;;;;;;16.72;69.87;97113.42;107025;1273;23106;-76
2023/07/28 02:29:50;;;;;;;5.70;3.90;;;;;;;16.71;69.91;97109.21;106996;1273;22533;-77
2023/07/28 02:32:18;;;;;;;6.00;4.20;;;;;;;16.71;69.92;97103.99;106960;1273;23005;-77
2023/07/28 02:34:46;;;;;;;5.70;3.90;;;;;;;16.70;69.84;97099.39;106974;1273;23895;-76
2023/07/28 02:37:15;;;;;;;6.20;4.00;;;;;;;16.68;69.95;97101.52;106973;1273;24346;-77
2023/07/28 02:39:43;;;;;;;7.10;4.40;;;;;;;16.67;70.03;97098.33;107086;1269;22647;-77
2023/07/28 02:42:12;;;;;;;4.70;4.10;;;;;;;16.65;70.14;97097.04;107002;1273;25278;-77
2023/07/28 02:44:40;;;;;;;5.50;3.80;;;;;;;16.64;70.26;97105.32;107016;1273;22528;-77
2023/07/28 02:47:08;;;;;;;4.80;3.80;;;;;;;16.63;70.14;97102.05;106925;1273;22528;-77
2023/07/28 02:49:36;;;;;;;4.60;4.00;;;;;;;16.62;70.17;97096.35;106940;1273;22524;-77
2023/07/28 02:52:05;;;;;;;5.50;4.20;;;;;;;16.60;70.29;97094.37;106966;1273;22524;-77
2023/07/28 02:54:33;;;;;;;7.40;3.90;;;;;;;16.58;70.39;97097.27;106928;1273;22986;-78
2023/07/28 02:57:01;;;;;;;5.40;3.80;;;;;;;16.57;70.48;97096.55;107001;1273;25326;-76
2023/07/28 02:59:30;;;;;;;6.70;3.80;;;;;;;16.60;70.58;97088.15;106970;1273;22788;-78
2023/07/28 03:01:58;;;;;;;7.10;3.60;;;;;;;16.62;70.71;97085.73;106967;1273;22686;-76
2023/07/28 03:04:26;;;;;;;6.40;4.00;;;;;;;16.62;70.97;97087.34;107016;1250;22639;-77
2023/07/28 03:07:27;;;;;;;7.80;3.90;;;;;;;16.61;71.30;97084.21;106802;1273;25354;-77
2023/07/28 03:09:58;;;;;;;5.90;4.20;;;;;;;16.58;71.42;97081.42;107028;1273;23046;-77
2023/07/28 03:12:27;;;;;;;6.60;3.80;;;;;;;16.55;71.54;97079.59;107008;1273;22538;-76
2023/07/28 03:14:55;;;;;;;5.70;3.80;;;;;;;16.53;71.59;97079.23;106943;1273;25326;-77
2023/07/28 03:17:24;;;;;;;6.10;4.20;;;;;;;16.48;71.55;97074.64;106978;1273;25265;-77
2023/07/28 03:19:53;;;;;;;5.30;3.90;;;;;;;16.43;71.88;97072.27;107102;1273;25568;-77
2023/07/28 03:22:23;;;;;;;7.00;3.90;;;;;;;16.40;72.25;97075.08;106954;1273;22637;-77
2023/07/28 03:24:52;;;;;;;7.10;3.90;;;;;;;16.35;72.05;97074.89;106934;1273;22521;-77
2023/07/28 03:27:20;;;;;;;5.50;3.80;;;;;;;16.26;72.19;97070.30;106934;1273;22528;-77
2023/07/28 03:29:48;;;;;;;5.70;4.40;;;;;;;16.19;73.42;97066.02;107014;1273;22520;-77
2023/07/28 03:32:17;;;;;;;6.80;4.00;;;;;;;16.06;73.55;97065.83;107021;1273;22978;-77
2023/07/28 03:34:45;;;;;;;8.10;4.20;;;;;;;16.05;73.73;97072.30;106808;1273;22640;-77
2023/07/28 03:37:14;;;;;;;5.80;3.50;;;;;;;16.08;74.10;97068.80;106956;1272;24271;-77
2023/07/28 03:39:42;;;;;;;6.10;3.90;;;;;;;16.09;74.25;97072.10;106965;1273;22584;-77
2023/07/28 03:42:10;;;;;;;4.90;4.10;;;;;;;16.07;74.41;97072.13;107273;1273;22532;-77
2023/07/28 03:44:39;;;;;;;5.50;4.00;;;;;;;16.00;74.66;97073.84;106951;1273;22660;-77
2023/07/28 03:47:08;;;;;;;5.60;4.00;;;;;;;15.93;74.77;97074.67;106871;1273;24269;-77
2023/07/28 03:49:36;;;;;;;5.70;4.40;;;;;;;15.88;75.17;97076.59;106967;1273;25336;-77
2023/07/28 03:52:04;;;;;;;4.40;3.40;;;;;;;15.90;75.31;97079.27;107009;1273;22641;-77
2023/07/28 03:54:32;;;;;;;6.80;3.40;;;;;;;15.93;75.54;97072.90;106917;1273;25223;-77
2023/07/28 03:57:00;;;;;;;9.10;4.50;;;;;;;15.98;75.80;97074.65;106980;1273;22521;-77
2023/07/28 03:59:28;;;;;;;6.50;4.10;;;;;;;16.00;76.07;97074.67;107005;1273;22571;-77
2023/07/28 04:01:57;;;;;;;5.70;4.10;;;;;;;16.00;76.13;97074.86;106929;1273;22518;-77
2023/07/28 04:04:25;;;;;;;7.50;4.30;;;;;;;16.02;76.20;97068.59;106990;1273;22616;-77
2023/07/28 04:06:53;;;;;;;6.80;4.30;;;;;;;16.04;76.22;97067.02;106926;1273;23889;-78
2023/07/28 04:09:21;;;;;;;5.30;4.00;;;;;;;16.05;76.22;97064.16;106991;1273;24344;-78
2023/07/28 04:11:49;;;;;;;8.10;4.60;;;;;;;16.07;76.48;97063.80;106835;1273;25394;-78
2023/07/28 04:14:17;;;;;;;9.10;4.30;;;;;;;16.11;76.50;97070.04;107016;1273;22520;-78
2023/07/28 04:16:45;;;;;;;8.90;4.90;;;;;;;16.19;76.55;97069.52;106978;1273;25440;-77
2023/07/28 04:19:13;;;;;;;6.30;4.60;;;;;;;16.25;76.79;97065.36;106963;1273;22580;-77
2023/07/28 04:21:41;;;;;;;9.70;5.20;;;;;;;16.28;76.85;97060.15;106910;1273;22527;-77
2023/07/28 04:24:10;;;;;;;7.60;5.70;;;;;;;16.32;76.92;97055.35;107005;1273;24372;-77
2023/07/28 04:26:43;;;;;;;7.50;5.50;;;;;;;16.33;76.93;97056.67;106933;1273;22564;-77
2023/07/28 04:29:12;;;;;;;8.70;5.50;;;;;;;16.34;77.01;97059.73;106910;1273;22557;-77
2023/07/28 04:31:39;;;;;;;9.40;6.20;;;;;;;16.36;77.12;97063.20;107001;1273;25406;-78
2023/07/28 04:34:12;;;;;;;7.20;5.70;;;;;;;16.35;77.16;97062.02;106962;1273;24383;-77
2023/07/28 04:37:05;;;;;;;9.90;5.90;;;;;;;16.37;77.18;97060.33;106953;1273;22604;-78
2023/07/28 04:39:53;;;;;;;8.00;5.30;;;;;;;16.41;77.44;97059.27;106942;1273;22528;-78
2023/07/28 04:42:21;;;;;;;6.90;5.20;;;;;;;16.45;77.84;97062.60;106996;1273;24220;-77
2023/07/28 04:44:49;;;;;;;7.60;5.80;;;;;;;16.47;78.04;97057.52;106985;1252;22727;-77
2023/07/28 04:47:18;;;;;;;7.50;5.20;;;;;;;16.49;78.07;97054.05;107035;1273;22605;-77
2023/07/28 04:49:47;;;;;;;7.80;5.70;;;;;;;16.50;78.46;97054.14;106996;1273;23145;-77
2023/07/28 04:52:33;;;;;;;8.10;5.60;;;;;;;16.52;78.42;97058.22;106963;1264;24260;-77
2023/07/28 04:55:34;;;;;;;12.60;6.70;;;;;;;16.56;78.63;97053.96;106690;1273;22777;-77
2023/07/28 04:58:02;;;;;;;8.30;6.20;;;;;;;16.62;78.67;97050.67;106927;1273;23237;-77
2023/07/28 05:00:39;;;;;;;9.60;6.70;;;;;;;16.69;78.72;97056.40;106939;1273;22517;-77
2023/07/28 05:03:07;;;;;;;9.70;7.00;;;;;;;16.72;78.69;97059.17;106885;1273;22735;-77
2023/07/28 05:05:38;;;;;;;15.50;7.50;;;;;;;16.74;78.66;97058.66;106925;1273;22573;-77
2023/07/28 05:08:07;;;;;;;9.50;7.30;;;;;;;16.76;78.72;97054.98;106932;1273;25320;-77
2023/07/28 05:10:35;;;;;;;8.70;6.00;;;;;;;16.76;78.55;97050.34;106930;1273;22535;-78
2023/07/28 05:13:04;;;;;;;7.20;5.90;;;;;;;16.75;78.43;97048.21;106916;1273;25395;-77
2023/07/28 05:15:32;;;;;;;9.20;4.70;;;;;;;16.75;78.39;97045.31;107018;1273;22532;-77
2023/07/28 05:18:01;;;;;;;9.30;5.40;;;;;;;16.76;78.37;97048.22;106912;1273;22532;-76
2023/07/28 05:20:43;;;;;;;6.70;4.80;;;;;;;16.76;78.26;97045.05;106917;1273;24270;-76
2023/07/28 05:23:14;;;;;;;8.70;5.60;;;;;;;16.77;78.12;97041.52;106965;1273;22921;-76
2023/07/28 05:25:42;;;;;;;9.10;5.20;;;;;;;16.83;78.18;97037.95;106940;1273;22630;-76
2023/07/28 05:28:10;;;;;;;6.20;4.80;;;;;;;16.90;78.19;97035.21;107055;1273;23897;-76
2023/07/28 05:30:39;;;;;;;6.30;4.70;;;;;;;16.96;78.33;97036.64;106943;1257;24248;-77
2023/07/28 05:33:07;;;;;;;6.30;4.20;;;;;;;17.01;78.19;97042.17;106889;1273;25524;-77
2023/07/28 05:35:44;;;;;;;7.10;4.50;;;;;;;17.05;78.11;97046.28;106936;1273;22626;-76
2023/07/28 05:38:12;;;;;;;6.30;4.70;;;;;;;17.08;78.05;97044.78;106964;1273;23929;-76
2023/07/28 05:40:40;;;;;;;7.10;4.40;;;;;;;17.12;78.00;97041.35;106934;1250;22533;-77
2023/07/28 05:43:08;;;;;;;8.50;4.20;;;;;;;17.16;77.90;97042.50;106959;1273;22626;-76
2023/07/28 05:45:36;;;;;;;13.80;5.00;;;;;;;17.19;77.64;97042.48;106953;1273;23054;-77
2023/07/28 05:48:05;;;;;;;8.40;5.00;;;;;;;17.23;77.21;97042.23;106915;1273;25414;-77
2023/07/28 05:50:38;;;;;;;7.20;5.40;;;;;;;17.25;77.09;97046.64;106919;1273;24320;-77
2023/07/28 05:53:06;;;;;;;7.60;5.30;;;;;;;17.27;77.15;97044.02;107007;1273;22518;-77
2023/07/28 05:55:34;;;;;;;10.10;5.00;;;;;;;17.29;76.39;97050.66;106932;1273;22524;-77
2023/07/28 05:58:02;;;;;;;9.20;4.80;;;;;;;17.31;76.37;97051.88;107068;1273;22525;-77
2023/07/28 06:00:31;;;;;;;10.10;4.90;;;;;;;17.31;76.17;97048.28;106911;1273;22589;-77
2023/07/28 06:03:00;;;;;;;6.40;4.50;;;;;;;17.33;75.53;97051.59;106966;1273;22577;-77
2023/07/28 06:05:54;;;;;;;7.70;5.00;;;;;;;17.30;75.54;97055.50;106911;1273;22559;-77
2023/07/28 06:08:22;;;;;;;8.80;4.40;;;;;;;17.28;75.34;97048.47;107014;1262;22632;-76
2023/07/28 06:10:50;;;;;;;7.40;5.60;;;;;;;17.26;75.47;97050.39;106884;1273;22994;-76
2023/07/28 06:13:19;;;;;;;5.50;4.00;;;;;;;17.27;75.38;97050.01;106995;1273;26295;-77
2023/07/28 06:15:47;;;;;;;30.40;13.90;;;;;;;17.27;75.43;97051.95;106926;1273;23399;-77
2023/07/28 06:18:16;;;;;;;7.80;4.50;;;;;;;17.24;76.16;97052.21;107068;1273;25389;-77
2023/07/28 06:20:49;;;;;;;7.80;4.40;;;;;;;17.24;76.62;97056.36;106981;1273;22520;-77
2023/07/28 06:23:17;;;;;;;8.50;4.10;;;;;;;17.23;76.64;97054.85;107059;1273;22790;-77
2023/07/28 06:25:46;;;;;;;5.40;3.80;;;;;;;17.20;76.74;97051.77;106947;1273;24369;-77
2023/07/28 06:28:17;;;;;;;4.70;3.50;;;;;;;17.17;76.61;97054.27;106945;1273;23139;-77
2023/07/28 06:30:45;;;;;;;6.80;3.80;;;;;;;17.15;76.95;97057.27;106943;1273;22515;-77
2023/07/28 06:33:13;;;;;;;9.50;4.80;;;;;;;17.12;77.65;97058.08;106955;1273;22525;-77
2023/07/28 06:35:41;;;;;;;6.00;4.10;;;;;;;17.13;78.52;97057.93;106988;1273;22521;-77
2023/07/28 06:38:09;;;;;;;9.00;5.40;;;;;;;17.11;78.70;97058.73;106977;1273;22867;-76
2023/07/28 06:40:37;;;;;;;8.90;5.10;;;;;;;17.09;78.58;97059.96;106869;1273;22595;-77
2023/07/28 06:43:07;;;;;;;7.70;4.90;;;;;;;17.06;78.59;97064.35;106934;1273;22660;-76
2023/07/28 06:45:36;;;;;;;6.80;4.10;;;;;;;17.02;78.55;97063.42;107065;1273;24218;-76
2023/07/28 06:48:04;;;;;;;10.50;4.50;;;;;;;17.01;79.03;97064.34;106984;1273;25268;-76
2023/07/28 06:50:32;;;;;;;6.10;4.80;;;;;;;17.04;80.30;97068.36;106964;1273;22785;-77
2023/07/28 06:53:00;;;;;;;9.10;5.20;;;;;;;16.99;80.19;97068.64;106948;1273;23897;-79
2023/07/28 06:55:28;;;;;;;8.60;5.30;;;;;;;16.95;80.67;97069.52;106935;1271;22536;-77
2023/07/28 06:57:56;;;;;;;9.30;5.90;;;;;;;16.86;80.51;97072.92;106999;1273;25445;-77
2023/07/28 07:00:24;;;;;;;6.80;5.70;;;;;;;16.80;80.96;97078.24;106928;1273;22741;-76
2023/07/28 07:02:52;;;;;;;7.70;5.10;;;;;;;16.78;81.19;97085.76;106906;1273;22537;-77
2023/07/28 07:05:20;;;;;;;6.50;5.40;;;;;;;16.79;82.06;97087.41;107037;1273;22530;-77
2023/07/28 07:07:48;;;;;;;6.40;4.90;;;;;;;16.76;82.62;97087.41;107002;1273;24375;-77
2023/07/28 07:10:16;;;;;;;6.40;4.60;;;;;;;16.71;83.60;97091.64;106994;1273;25399;-77
2023/07/28 07:12:44;;;;;;;6.90;5.00;;;;;;;16.58;84.09;97088.04;106976;1273;22630;-77
2023/07/28 07:15:12;;;;;;;8.20;5.40;;;;;;;16.48;84.72;97088.20;106995;1273;23902;-77
2023/07/28 07:17:40;;;;;;;5.60;5.00;;;;;;;16.44;85.89;97087.82;106934;1273;22581;-77
2023/07/28 07:20:10;;;;;;;7.80;4.90;;;;;;;16.36;86.27;97087.48;106953;1273;24248;-77
2023/07/28 07:22:38;;;;;;;7.10;4.80;;;;;;;16.26;85.81;97088.98;106965;1273;22724;-77
2023/07/28 07:25:07;;;;;;;4.90;4.40;;;;;;;16.21;86.42;97091.77;107039;1273;22524;-77
2023/07/28 07:27:35;;;;;;;6.50;5.50;;;;;;;16.21;87.12;97088.81;107054;1273;25515;-77
2023/07/28 07:30:04;;;;;;;7.20;5.60;;;;;;;16.20;88.78;97088.25;106999;1273;22791;-77
2023/07/28 07:32:33;;;;;;;6.30;4.70;;;;;;;16.17;89.49;97091.13;107127;1250;22964;-77
2023/07/28 07:35:02;;;;;;;5.40;4.40;;;;;;;16.10;90.30;97092.29;107075;1273;25392;-77
2023/07/28 07:37:31;;;;;;;5.90;4.80;;;;;;;16.00;90.29;97095.33;107094;1273;22525;-77
2023/07/28 07:40:01;;;;;;;5.70;4.70;;;;;;;15.98;92.40;97103.52;107112;1273;22678;-77
2023/07/28 07:42:41;;;;;;;7.20;5.40;;;;;;;15.92;92.17;97101.21;107129;1273;22537;-78
2023/07/28 07:45:11;;;;;;;8.00;6.00;;;;;;;15.87;92.93;97109.00;106999;1273;25422;-78
2023/07/28 07:47:41;;;;;;;8.00;5.20;;;;;;;15.83;94.56;97108.14;107086;1250;22567;-78
2023/07/28 07:50:10;;;;;;;7.40;5.80;;;;;;;15.79;94.13;97113.26;107070;1273;23925;-80
2023/07/28 07:52:38;;;;;;;7.40;5.00;;;;;;;15.77;94.90;97112.58;106988;1273;25265;-78
2023/07/28 07:55:13;;;;;;;7.40;5.90;;;;;;;15.79;95.27;97113.48;106943;1273;25674;-79
2023/07/28 07:57:41;;;;;;;5.90;4.80;;;;;;;15.82;97.30;97116.95;107011;1273;22673;-78
2023/07/28 08:00:10;;;;;;;6.40;5.10;;;;;;;15.79;95.25;97117.52;107019;1273;22738;-79
2023/07/28 08:02:41;;;;;;;8.50;5.00;;;;;;;15.83;95.72;97121.41;106990;1273;23795;-79
2023/07/28 08:05:14;;;;;;;6.00;4.20;;;;;;;15.87;95.41;97119.95;106921;1273;22673;-79
2023/07/28 08:07:42;;;;;;;8.10;4.50;;;;;;;15.93;95.39;97122.42;106935;1273;23302;-79
2023/07/28 08:10:10;;;;;;;6.20;4.70;;;;;;;16.02;98.27;97118.83;106941;1273;22519;-80
2023/07/28 08:12:38;;;;;;;6.50;5.20;;;;;;;16.06;98.46;97117.89;107021;1264;22521;-80
2023/07/28 08:15:06;;;;;;;8.90;5.10;;;;;;;16.07;98.01;97115.82;106939;1273;22528;-78
2023/07/28 08:17:34;;;;;;;9.30;4.90;;;;;;;16.08;97.40;97117.64;107070;1273;25558;-79
2023/07/28 08:20:03;;;;;;;9.40;5.20;;;;;;;16.14;96.71;97115.22;106959;1273;24373;-79
2023/07/28 08:22:32;;;;;;;6.20;4.90;;;;;;;16.23;97.91;97115.17;106996;1273;24894;-78
2023/07/28 08:25:00;;;;;;;7.90;5.10;;;;;;;16.28;98.27;97115.45;107042;1273;23483;-79
2023/07/28 08:27:28;;;;;;;7.20;5.70;;;;;;;16.33;97.71;97114.86;107356;1273;25337;-79
2023/07/28 08:29:56;;;;;;;7.40;4.70;;;;;;;16.39;97.29;97116.22;107042;1273;22525;-79
2023/07/28 08:32:24;;;;;;;7.70;5.00;;;;;;;16.46;98.68;97116.60;107348;1273;22912;-79
2023/07/28 08:34:52;;;;;;;6.60;4.90;;;;;;;16.51;99.12;97115.48;107321;1273;24230;-79
2023/07/28 08:37:20;;;;;;;6.80;5.10;;;;;;;16.56;98.60;97116.29;107335;1273;22511;-78
2023/07/28 08:39:48;;;;;;;8.20;4.80;;;;;;;16.64;99.42;97117.69;106940;1273;23911;-79
2023/07/28 08:42:16;;;;;;;7.10;5.30;;;;;;;16.69;99.52;97116.69;106963;1273;24315;-78
2023/07/28 08:44:45;;;;;;;7.40;5.10;;;;;;;16.75;99.68;97113.02;106907;1273;23343;-79
2023/07/28 08:47:14;;;;;;;6.90;5.30;;;;;;;16.83;99.84;97111.57;107318;1273;25451;-78
2023/07/28 08:49:42;;;;;;;6.40;4.50;;;;;;;16.99;99.87;97109.70;107385;1273;22580;-78
2023/07/28 08:52:10;;;;;;;7.40;5.10;;;;;;;17.16;99.89;97107.77;107060;1273;25325;-78
2023/07/28 08:54:39;;;;;;;4.80;3.90;;;;;;;17.33;99.89;97112.11;106970;1273;24260;-78
2023/07/28 08:57:09;;;;;;;5.60;4.20;;;;;;;17.45;99.93;97114.67;106937;1266;22529;-77
2023/07/28 08:59:41;;;;;;;8.60;4.10;;;;;;;17.53;99.72;97111.36;106931;1273;24228;-78
2023/07/28 09:02:10;;;;;;;5.40;4.30;;;;;;;17.59;99.26;97109.91;106922;1273;22531;-78
2023/07/28 09:04:38;;;;;;;5.30;3.90;;;;;;;17.72;99.01;97107.88;106891;1273;22517;-78
2023/07/28 09:07:06;;;;;;;13.20;5.80;;;;;;;17.88;98.96;97111.52;106904;1273;25446;-78
2023/07/28 09:09:36;;;;;;;9.10;6.00;;;;;;;18.03;98.30;97106.59;106985;1273;22569;-78
2023/07/28 09:12:05;;;;;;;6.00;4.80;;;;;;;18.24;98.13;97099.88;107332;1273;22662;-77
2023/07/28 09:14:36;;;;;;;6.00;4.40;;;;;;;18.51;97.76;97098.92;106952;1273;24227;-77
2023/07/28 09:17:11;;;;;;;6.20;3.50;;;;;;;18.76;97.57;97100.27;107016;1273;25252;-78
2023/07/28 09:19:56;;;;;;;6.50;4.10;;;;;;;18.96;96.55;97098.48;106983;1273;22522;-78
2023/07/28 09:22:24;;;;;;;7.00;4.60;;;;;;;19.08;94.96;97100.17;106909;1273;24354;-78
2023/07/28 09:24:52;;;;;;;9.10;4.20;;;;;;;19.14;94.13;97099.45;106975;1273;22521;-78
2023/07/28 09:27:22;;;;;;;7.80;4.10;;;;;;;19.21;93.16;97096.40;107032;1273;22627;-78
2023/07/28 09:29:54;;;;;;;5.90;3.90;;;;;;;19.26;91.46;97099.55;107032;1273;23296;-78
2023/07/28 09:32:30;;;;;;;7.00;4.50;;;;;;;19.31;90.89;97096.73;107003;1273;22661;-78
2023/07/28 09:35:09;;;;;;;4.90;3.90;;;;;;;19.34;89.75;97108.78;107055;1273;22730;-77
2023/07/28 09:37:40;;;;;;;5.50;4.30;;;;;;;19.36;88.69;97103.89;107103;1273;22533;-77
2023/07/28 09:40:13;;;;;;;4.60;3.50;;;;;;;19.40;89.64;97109.08;107014;1273;22514;-77
2023/07/28 09:42:49;;;;;;;6.00;4.30;;;;;;;19.40;88.13;97101.02;106992;1273;22532;-78
2023/07/28 09:45:21;;;;;;;6.00;4.70;;;;;;;19.34;88.62;97104.17;106915;1273;26551;-78
2023/07/28 09:48:10;;;;;;;5.30;4.40;;;;;;;19.28;87.90;97107.48;106961;1273;22522;-77
2023/07/28 09:50:40;;;;;;;5.00;3.80;;;;;;;19.21;87.83;97106.86;106932;1273;22467;-78
2023/07/28 09:53:10;;;;;;;5.50;4.10;;;;;;;19.15;88.22;97107.58;107357;1273;25403;-78
2023/07/28 09:55:43;;;;;;;5.20;4.00;;;;;;;19.13;87.52;97113.95;106978;1273;22582;-77
2023/07/28 09:58:16;;;;;;;6.00;3.90;;;;;;;19.03;86.60;97103.40;106942;1273;22991;-77
2023/07/28 10:00:46;;;;;;;5.90;3.80;;;;;;;18.94;86.48;97099.16;106906;1273;24245;-77
2023/07/28 10:03:16;;;;;;;7.30;3.90;;;;;;;18.92;86.84;97099.53;106990;1273;22733;-77
2023/07/28 10:05:45;;;;;;;8.20;4.90;;;;;;;18.92;87.21;97097.48;106978;1250;22599;-78
2023/07/28 10:08:14;;;;;;;6.90;4.10;;;;;;;18.94;86.35;97100.10;106947;1273;24218;-77
2023/07/28 10:10:42;;;;;;;4.00;3.60;;;;;;;18.91;86.32;97100.69;106924;1273;22517;-76
2023/07/28 10:13:20;;;;;;;4.80;4.00;;;;;;;18.94;86.25;97101.81;106962;1273;24107;-77
2023/07/28 10:15:50;;;;;;;5.10;3.90;;;;;;;18.96;86.83;97113.23;107008;1273;25778;-78
2023/07/28 10:18:21;;;;;;;5.80;4.80;;;;;;;18.99;86.90;97116.69;106958;1273;25259;-78
2023/07/28 10:20:49;;;;;;;4.40;3.60;;;;;;;19.03;86.67;97118.60;106960;1273;25319;-78
2023/07/28 10:23:21;;;;;;;5.90;4.00;;;;;;;19.03;86.35;97121.17;106900;1273;22517;-78
2023/07/28 10:26:01;;;;;;;5.70;3.90;;;;;;;19.03;86.15;97121.34;107283;1273;22637;-78
2023/07/28 10:28:38;;;;;;;4.70;3.90;;;;;;;19.01;87.03;97126.77;107064;1273;22645;-79
2023/07/28 10:31:08;;;;;;;5.10;4.10;;;;;;;19.02;86.76;97128.98;107296;1273;22653;-78
2023/07/28 10:33:41;;;;;;;5.70;4.20;;;;;;;18.99;86.41;97125.80;106968;1273;22633;-78
2023/07/28 10:36:12;;;;;;;6.40;4.00;;;;;;;19.00;86.27;97123.95;107276;1273;25194;-77
2023/07/28 10:38:43;;;;;;;9.10;4.10;;;;;;;19.09;86.78;97121.56;106964;1273;22609;-78
2023/07/28 10:41:17;;;;;;;8.60;4.30;;;;;;;19.24;86.96;97121.56;106886;1273;22563;-78
2023/07/28 10:43:46;;;;;;;7.40;4.20;;;;;;;19.39;86.62;97111.88;107031;1273;22647;-79
2023/07/28 10:46:17;;;;;;;4.60;3.60;;;;;;;19.54;86.53;97109.60;106907;1273;25309;-77
2023/07/28 10:48:47;;;;;;;6.00;4.70;;;;;;;19.68;85.98;97111.77;107052;1273;23152;-77
2023/07/28 10:51:29;;;;;;;5.30;4.10;;;;;;;19.74;85.28;97118.23;107076;1273;22648;-77
2023/07/28 10:53:57;;;;;;;7.90;4.20;;;;;;;19.77;85.20;97117.23;107029;1273;24062;-77
2023/07/28 10:56:26;;;;;;;7.90;5.30;;;;;;;19.83;85.19;97118.61;107085;1273;22538;-77
2023/07/28 10:59:04;;;;;;;24.40;12.20;;;;;;;19.92;83.87;97122.13;107002;1273;22516;-77
2023/07/28 11:01:33;;;;;;;7.90;4.10;;;;;;;19.96;84.37;97119.96;107068;1273;22872;-77
2023/07/28 11:04:13;;;;;;;5.80;3.50;;;;;;;20.01;83.97;97122.27;107200;1273;22637;-77
2023/07/28 11:06:46;;;;;;;8.10;4.70;;;;;;;19.95;84.23;97131.98;106988;1273;25268;-77
2023/07/28 11:09:17;;;;;;;5.80;4.70;;;;;;;19.88;84.19;97141.77;107101;1273;25233;-77
2023/07/28 11:11:46;;;;;;;4.00;3.20;;;;;;;19.79;83.75;97149.20;106963;1273;22540;-78
2023/07/28 11:14:17;;;;;;;4.80;3.40;;;;;;;19.68;83.66;97146.67;106952;1273;22727;-77
2023/07/28 11:16:48;;;;;;;7.00;3.80;;;;;;;19.61;84.17;97151.27;106985;1273;24471;-77
2023/07/28 11:19:21;;;;;;;6.20;3.30;;;;;;;19.58;84.70;97153.75;107024;1273;22991;-77
2023/07/28 11:21:51;;;;;;;6.60;3.80;;;;;;;19.52;84.41;97154.55;106953;1273;22715;-78
2023/07/28 11:24:20;;;;;;;6.00;3.90;;;;;;;19.50;84.46;97153.83;106901;1252;22799;-78
2023/07/28 11:26:50;;;;;;;7.20;4.30;;;;;;;19.50;84.49;97148.20;107010;1273;24245;-78
2023/07/28 11:29:19;;;;;;;6.00;4.00;;;;;;;19.58;85.07;97139.60;107055;1273;25389;-77
2023/07/28 11:31:48;;;;;;;7.40;4.50;;;;;;;19.69;85.20;97137.16;107040;1273;23394;-79
2023/07/28 11:34:18;;;;;;;5.60;3.60;;;;;;;19.71;84.76;97143.97;107038;1273;23945;-78
2023/07/28 11:36:46;;;;;;;4.50;3.40;;;;;;;19.72;84.14;97142.81;107062;1273;22645;-77